Terminal Aerodrome Forecast
Issued by NWS

Home | Current Version | Previous Version | Text Only | Print | Product List | Glossary On
Versions: 1 2 3 4 5 6 7 8 9 10 11 12 13 14 15
000
FTUS43 KDTX 251720
TAFDET
TAF
KDET 251720Z 2518/2618 13008KT P6SM FEW100 SCT200
     FM260200 12007KT P6SM SCT080 BKN150
     FM260600 15008KT P6SM SCT045 BKN060 OVC120
     FM260900 18009KT 4SM SHRA BR OVC020
     FM261500 23011KT P6SM OVC030=

USA.gov is the U.S. government's official web portal to all federal, state and local government web resources and services.